createdAt,value
2023-04-29T00:02:12.292Z,68.65
2023-04-29T00:04:39.039Z,69.05
2023-04-29T00:07:05.489Z,68.88
2023-04-29T00:09:31.770Z,69.08
2023-04-29T00:11:58.030Z,68.91
2023-04-29T00:14:24.283Z,69.15
2023-04-29T00:16:50.614Z,69.43
2023-04-29T00:19:16.912Z,69.41
2023-04-29T00:21:43.186Z,70.04
2023-04-29T00:24:09.440Z,69.60
2023-04-29T00:26:35.698Z,69.40
2023-04-29T00:29:01.952Z,69.16
2023-04-29T00:31:28.234Z,68.95
2023-04-29T00:33:54.502Z,68.53
2023-04-29T00:36:20.781Z,68.82
2023-04-29T00:38:47.068Z,68.41
2023-04-29T00:41:13.375Z,68.34
2023-04-29T00:43:39.648Z,68.87
2023-04-29T00:46:06.033Z,68.80
2023-04-29T00:48:32.293Z,68.77
2023-04-29T00:50:58.540Z,68.53
2023-04-29T00:53:24.786Z,68.98
2023-04-29T00:55:51.057Z,68.40
2023-04-29T00:58:17.328Z,69.41
2023-04-29T01:00:43.605Z,69.91
2023-04-29T01:03:10.029Z,70.18
2023-04-29T01:05:36.483Z,69.78
2023-04-29T01:08:02.752Z,69.57
2023-04-29T01:10:29.043Z,69.98
2023-04-29T01:12:55.329Z,69.94
2023-04-29T01:15:21.603Z,70.38
2023-04-29T01:17:47.908Z,70.53
2023-04-29T01:20:14.191Z,70.10
2023-04-29T01:22:40.467Z,70.38
2023-04-29T01:25:06.792Z,70.04
2023-04-29T01:27:33.047Z,69.70
2023-04-29T01:29:59.356Z,69.67
2023-04-29T01:32:25.678Z,69.65
2023-04-29T01:34:51.954Z,69.18
2023-04-29T01:37:18.204Z,69.13
2023-04-29T01:39:44.497Z,69.36
2023-04-29T01:42:10.758Z,69.32
2023-04-29T01:44:37.014Z,69.62
2023-04-29T01:47:03.365Z,69.27
2023-04-29T01:49:29.650Z,69.27
2023-04-29T01:51:55.913Z,69.36
2023-04-29T01:54:22.165Z,69.40
2023-04-29T01:56:48.409Z,69.42
2023-04-29T01:59:14.676Z,69.06
2023-04-29T02:01:40.935Z,68.85
2023-04-29T02:04:07.298Z,69.49
2023-04-29T02:06:33.627Z,69.44
2023-04-29T02:08:59.944Z,69.24
2023-04-29T02:11:26.244Z,69.65
2023-04-29T02:13:52.519Z,68.88
2023-04-29T02:16:18.863Z,68.46
2023-04-29T02:18:45.191Z,69.20
2023-04-29T02:21:11.458Z,69.21
2023-04-29T02:23:37.736Z,68.46
2023-04-29T02:26:04.015Z,68.54
2023-04-29T02:28:30.316Z,68.28
2023-04-29T02:30:56.574Z,68.18
2023-04-29T02:33:22.889Z,67.98
2023-04-29T02:35:49.173Z,69.03
2023-04-29T02:38:15.472Z,68.80
2023-04-29T02:40:41.743Z,68.79
2023-04-29T02:43:07.999Z,69.03
2023-04-29T02:45:34.293Z,69.30
2023-04-29T02:48:00.643Z,68.75
2023-04-29T02:50:27.050Z,69.15
2023-04-29T02:52:53.331Z,69.25
2023-04-29T02:55:19.590Z,68.82
2023-04-29T02:57:45.849Z,69.17
2023-04-29T03:00:12.102Z,69.73
2023-04-29T03:02:38.451Z,69.52
2023-04-29T03:05:04.888Z,69.16
2023-04-29T03:07:31.157Z,69.53
2023-04-29T03:09:57.404Z,69.63
2023-04-29T03:12:23.658Z,68.92
2023-04-29T03:14:49.935Z,68.62
2023-04-29T03:17:16.217Z,68.44
2023-04-29T03:19:42.476Z,69.11
2023-04-29T03:22:08.742Z,69.00
2023-04-29T03:24:35.024Z,68.75
2023-04-29T03:27:01.286Z,68.98
2023-04-29T03:29:27.540Z,69.29
2023-04-29T03:31:53.812Z,68.95
2023-04-29T03:34:20.054Z,69.20
2023-04-29T03:36:46.301Z,69.36
2023-04-29T03:39:12.575Z,69.25
2023-04-29T03:41:38.873Z,69.49
2023-04-29T03:44:05.146Z,69.47
2023-04-29T03:46:31.465Z,69.72
2023-04-29T03:48:57.736Z,69.35
2023-04-29T03:51:23.981Z,70.14
2023-04-29T03:53:50.229Z,69.32
2023-04-29T03:56:17.392Z,69.43
2023-04-29T03:58:43.799Z,69.97
2023-04-29T04:01:10.109Z,70.50
2023-04-29T04:03:36.649Z,70.49
2023-04-29T04:06:03.083Z,70.12
2023-04-29T04:08:29.330Z,70.25
2023-04-29T04:10:55.593Z,70.00
2023-04-29T04:13:21.864Z,70.16
2023-04-29T04:15:48.187Z,70.36
2023-04-29T04:18:14.546Z,70.04
2023-04-29T04:20:40.853Z,70.01
2023-04-29T04:23:07.139Z,70.37
2023-04-29T04:25:33.428Z,70.19
2023-04-29T04:27:59.715Z,70.44
2023-04-29T04:30:25.979Z,70.04
2023-04-29T04:32:52.297Z,70.17
2023-04-29T04:35:18.620Z,70.29
2023-04-29T04:37:44.876Z,70.48
2023-04-29T04:40:11.156Z,70.25
2023-04-29T04:42:37.430Z,70.52
2023-04-29T04:45:03.680Z,69.95
2023-04-29T04:47:29.993Z,70.63
2023-04-29T04:49:56.328Z,70.57
2023-04-29T04:52:22.589Z,70.47
2023-04-29T04:54:48.876Z,70.81
2023-04-29T04:57:15.156Z,71.12
2023-04-29T04:59:41.413Z,71.75
2023-04-29T05:02:07.758Z,71.35
2023-04-29T05:04:34.187Z,71.30
2023-04-29T05:07:00.462Z,71.15
2023-04-29T05:09:26.722Z,71.31
2023-04-29T05:11:53.022Z,71.06
2023-04-29T05:14:19.280Z,70.80
2023-04-29T05:16:45.601Z,70.86
2023-04-29T05:19:11.884Z,70.35
2023-04-29T05:21:38.158Z,70.70
2023-04-29T05:24:04.423Z,70.75
2023-04-29T05:26:30.696Z,70.29
2023-04-29T05:28:56.961Z,69.97
2023-04-29T05:31:23.279Z,70.37
2023-04-29T05:33:49.698Z,70.33
2023-04-29T05:36:15.986Z,70.11
2023-04-29T05:38:42.281Z,69.96
2023-04-29T05:41:08.572Z,70.41
2023-04-29T05:43:36.222Z,70.08
2023-04-29T05:46:03.129Z,70.38
2023-04-29T05:48:29.391Z,69.82
2023-04-29T05:50:55.653Z,69.73
2023-04-29T05:53:21.890Z,70.36
2023-04-29T05:55:49.694Z,70.14
2023-04-29T05:58:17.224Z,70.09
2023-04-29T06:00:43.491Z,70.34
2023-04-29T06:03:09.905Z,70.33
2023-04-29T06:05:36.498Z,70.61
2023-04-29T06:08:02.970Z,69.99
2023-04-29T06:10:29.271Z,70.42
2023-04-29T06:12:55.532Z,70.29
2023-04-29T06:15:21.778Z,70.28
2023-04-29T06:17:48.071Z,69.78
2023-04-29T06:20:14.328Z,70.12
2023-04-29T06:22:40.599Z,70.17
2023-04-29T06:25:06.865Z,70.38
2023-04-29T06:27:33.111Z,69.81
2023-04-29T06:29:59.384Z,70.13
2023-04-29T06:32:25.672Z,70.14
2023-04-29T06:34:51.978Z,70.35
2023-04-29T06:37:18.228Z,69.74
2023-04-29T06:39:44.505Z,70.18
2023-04-29T06:42:10.787Z,69.89
2023-04-29T06:44:37.086Z,69.97
2023-04-29T06:47:03.380Z,70.05
2023-04-29T06:49:29.688Z,70.13
2023-04-29T06:51:55.936Z,70.06
2023-04-29T06:54:22.201Z,70.38
2023-04-29T06:56:48.495Z,70.53
2023-04-29T06:59:14.761Z,69.48
2023-04-29T07:01:44.033Z,69.54
2023-04-29T07:04:10.872Z,69.68
2023-04-29T07:06:37.167Z,70.10
2023-04-29T07:09:03.415Z,69.75
2023-04-29T07:11:29.666Z,69.65
2023-04-29T07:13:55.908Z,69.83
2023-04-29T07:16:22.292Z,69.48
2023-04-29T07:18:48.587Z,69.84
2023-04-29T07:21:14.834Z,70.13
2023-04-29T07:23:41.099Z,69.79
2023-04-29T07:26:07.346Z,69.79
2023-04-29T07:28:33.590Z,69.92
2023-04-29T07:30:59.902Z,70.14
2023-04-29T07:33:26.189Z,69.70
2023-04-29T07:35:52.528Z,69.85
2023-04-29T07:38:18.819Z,69.87
2023-04-29T07:40:45.077Z,69.71
2023-04-29T07:43:11.361Z,69.58
2023-04-29T07:45:37.669Z,69.72
2023-04-29T07:48:03.978Z,69.88
2023-04-29T07:50:30.237Z,70.17
2023-04-29T07:52:56.489Z,70.56
2023-04-29T07:55:22.782Z,70.59
2023-04-29T07:57:49.040Z,70.66
2023-04-29T08:00:15.296Z,71.36
2023-04-29T08:02:41.719Z,71.15
2023-04-29T08:05:08.552Z,71.42
2023-04-29T08:07:35.117Z,72.22
2023-04-29T08:10:01.400Z,71.60
2023-04-29T08:12:27.651Z,71.78
2023-04-29T08:14:54.174Z,70.89
2023-04-29T08:17:20.626Z,70.86
2023-04-29T08:19:46.893Z,71.06
2023-04-29T08:22:13.151Z,70.28
2023-04-29T08:24:39.407Z,70.22
2023-04-29T08:27:05.802Z,70.58
2023-04-29T08:29:32.088Z,70.49
2023-04-29T08:31:58.374Z,69.78
2023-04-29T08:34:24.669Z,70.45
2023-04-29T08:36:50.940Z,69.84
2023-04-29T08:41:43.792Z,70.50
2023-04-29T08:44:10.060Z,70.77
2023-04-29T08:46:36.317Z,70.20
2023-04-29T08:49:02.587Z,71.27
2023-04-29T08:51:28.868Z,70.82
2023-04-29T08:53:55.138Z,71.15
2023-04-29T08:56:21.401Z,70.57
2023-04-29T08:58:47.687Z,70.77
2023-04-29T09:01:14.007Z,70.21
2023-04-29T09:03:40.424Z,70.29
2023-04-29T09:06:06.796Z,69.78
2023-04-29T09:08:33.079Z,70.46
2023-04-29T09:10:59.357Z,69.79
2023-04-29T09:13:25.624Z,69.60
2023-04-29T09:15:51.878Z,70.00
2023-04-29T09:18:18.144Z,69.69
2023-04-29T09:20:44.395Z,68.63
2023-04-29T09:23:10.747Z,68.91
2023-04-29T09:25:37.056Z,69.20
2023-04-29T09:28:03.336Z,67.78
2023-04-29T09:30:29.610Z,67.99
2023-04-29T09:32:55.904Z,68.48
2023-04-29T09:35:22.173Z,67.51
2023-04-29T09:37:48.454Z,67.53
2023-04-29T09:40:14.701Z,67.60
2023-04-29T09:42:40.981Z,68.17
2023-04-29T09:45:07.258Z,66.83
2023-04-29T09:47:33.660Z,67.75
2023-04-29T09:49:59.969Z,68.30
2023-04-29T09:52:26.212Z,67.43
2023-04-29T09:54:52.760Z,66.76
2023-04-29T09:57:19.194Z,66.78
2023-04-29T09:59:45.470Z,66.74
2023-04-29T10:02:11.771Z,66.21
2023-04-29T10:04:39.587Z,66.36
2023-04-29T10:07:06.434Z,66.35
2023-04-29T10:09:32.714Z,66.90
2023-04-29T10:11:59.057Z,67.28
2023-04-29T10:14:25.321Z,65.65
2023-04-29T10:16:51.576Z,65.72
2023-04-29T10:19:17.828Z,66.51
2023-04-29T10:21:44.084Z,67.01
2023-04-29T10:24:10.376Z,66.60
2023-04-29T10:26:36.635Z,66.25
2023-04-29T10:29:02.894Z,64.96
2023-04-29T10:31:29.230Z,66.33
2023-04-29T10:33:55.665Z,67.08
2023-04-29T10:36:21.948Z,66.64
2023-04-29T10:38:48.207Z,66.09
2023-04-29T10:41:14.481Z,65.87
2023-04-29T10:43:40.761Z,64.84
2023-04-29T10:46:07.035Z,65.40
2023-04-29T10:48:33.313Z,64.55
2023-04-29T10:50:59.566Z,64.84
2023-04-29T10:53:25.859Z,63.20
2023-04-29T10:55:52.127Z,63.83
2023-04-29T10:58:18.377Z,64.36
2023-04-29T11:00:44.695Z,64.94
2023-04-29T11:03:11.066Z,62.71
2023-04-29T11:05:37.472Z,63.53
2023-04-29T11:08:03.766Z,62.88
2023-04-29T11:10:30.059Z,63.01
2023-04-29T11:12:56.324Z,63.71
2023-04-29T11:15:22.611Z,63.97
2023-04-29T11:17:48.999Z,63.15
2023-04-29T11:20:15.406Z,64.17
2023-04-29T11:22:41.674Z,62.81
2023-04-29T11:25:07.957Z,62.51
2023-04-29T11:27:34.207Z,62.99
2023-04-29T11:30:00.606Z,61.50
2023-04-29T11:32:26.988Z,60.52
2023-04-29T11:34:53.568Z,61.02
2023-04-29T11:37:20.221Z,60.68
2023-04-29T11:39:46.482Z,60.61
2023-04-29T11:42:12.735Z,59.97
2023-04-29T11:44:39.016Z,60.16
2023-04-29T11:47:05.367Z,60.31
2023-04-29T11:49:31.629Z,59.79
2023-04-29T11:51:57.877Z,59.17
2023-04-29T11:54:24.153Z,58.52
2023-04-29T11:56:50.436Z,57.86
2023-04-29T11:59:16.712Z,58.29
2023-04-29T12:01:42.981Z,58.38
2023-04-29T12:04:09.429Z,57.88
2023-04-29T12:06:35.918Z,57.92
2023-04-29T12:09:02.166Z,58.81
2023-04-29T12:11:28.451Z,56.17
2023-04-29T12:13:54.705Z,56.76
2023-04-29T12:16:20.991Z,55.72
2023-04-29T12:18:47.318Z,57.01
2023-04-29T12:21:13.638Z,55.73
2023-04-29T12:23:39.904Z,56.24
2023-04-29T12:26:06.147Z,55.55
2023-04-29T12:28:32.378Z,55.61
2023-04-29T12:30:58.630Z,55.30
2023-04-29T12:33:24.903Z,55.81
2023-04-29T12:35:51.149Z,55.86
2023-04-29T12:38:17.418Z,55.03
2023-04-29T12:40:43.686Z,55.23
2023-04-29T12:43:09.940Z,54.13
2023-04-29T12:45:36.208Z,54.68
2023-04-29T12:48:03.274Z,54.86
2023-04-29T12:50:31.963Z,54.81
2023-04-29T12:52:58.247Z,55.15
2023-04-29T12:55:24.511Z,55.55
2023-04-29T12:57:50.777Z,55.97
2023-04-29T13:00:17.055Z,57.08
2023-04-29T13:02:43.486Z,56.61
2023-04-29T13:05:09.888Z,56.17
2023-04-29T13:07:37.111Z,56.10
2023-04-29T13:10:03.462Z,56.29
2023-04-29T13:12:29.740Z,55.82
2023-04-29T13:14:57.951Z,56.41
2023-04-29T13:17:24.454Z,54.85
2023-04-29T13:19:52.026Z,54.46
2023-04-29T13:22:18.682Z,56.35
2023-04-29T13:24:44.940Z,56.26
2023-04-29T13:27:11.249Z,56.59
2023-04-29T13:29:37.542Z,55.05
2023-04-29T13:32:03.850Z,54.80
2023-04-29T13:34:30.187Z,54.30
2023-04-29T13:36:56.450Z,53.95
2023-04-29T13:39:23.025Z,54.12
2023-04-29T13:41:49.424Z,54.62
2023-04-29T13:44:27.145Z,54.70
2023-04-29T13:46:57.201Z,53.79
2023-04-29T13:49:55.965Z,54.01
2023-04-29T13:54:59.173Z,53.82
2023-04-29T13:59:54.361Z,53.51
2023-04-29T14:04:50.086Z,52.71
2023-04-29T14:07:16.508Z,55.51
2023-04-29T14:09:42.782Z,53.89
2023-04-29T14:12:09.045Z,53.79
2023-04-29T14:14:35.295Z,53.33
2023-04-29T14:17:02.618Z,53.35
2023-04-29T14:19:28.887Z,53.43
2023-04-29T14:21:55.164Z,53.43
2023-04-29T14:24:21.420Z,53.29
2023-04-29T14:26:47.708Z,53.88
2023-04-29T14:29:13.937Z,54.04
2023-04-29T14:31:40.241Z,54.44
2023-04-29T14:34:06.587Z,52.85
2023-04-29T14:36:32.863Z,53.33
2023-04-29T14:38:59.144Z,53.14
2023-04-29T14:41:25.421Z,52.82
2023-04-29T14:43:51.728Z,53.01
2023-04-29T14:46:18.120Z,52.08
2023-04-29T14:48:44.389Z,51.28
2023-04-29T14:51:10.668Z,51.65
2023-04-29T14:53:36.941Z,51.36
2023-04-29T14:56:03.245Z,51.67
2023-04-29T14:58:29.536Z,51.23
2023-04-29T15:00:55.789Z,50.25
2023-04-29T15:03:23.089Z,50.38
2023-04-29T15:05:49.653Z,49.95
2023-04-29T15:08:15.971Z,49.60
2023-04-29T15:10:42.235Z,48.31
2023-04-29T15:13:08.489Z,49.32
2023-04-29T15:15:34.776Z,48.18
2023-04-29T15:18:01.137Z,48.24
2023-04-29T15:20:27.423Z,48.17
2023-04-29T15:22:53.686Z,48.26
2023-04-29T15:25:19.944Z,49.26
2023-04-29T15:27:46.185Z,48.48
2023-04-29T15:30:12.462Z,48.73
2023-04-29T15:32:38.746Z,48.65
2023-04-29T15:35:05.148Z,48.71
2023-04-29T15:37:31.453Z,48.52
2023-04-29T15:39:57.727Z,47.21
2023-04-29T15:42:24.028Z,45.96
2023-04-29T15:44:50.283Z,45.63
2023-04-29T15:47:16.535Z,45.40
2023-04-29T15:49:42.794Z,44.75
2023-04-29T15:52:09.046Z,44.03
2023-04-29T15:54:35.333Z,44.28
2023-04-29T15:57:01.595Z,44.17
2023-04-29T15:59:27.898Z,44.48
2023-04-29T16:01:54.172Z,43.14
2023-04-29T16:04:20.473Z,42.90
2023-04-29T16:06:46.803Z,43.42
2023-04-29T16:09:13.189Z,44.29
2023-04-29T16:11:39.438Z,44.85
2023-04-29T16:14:05.698Z,45.22
2023-04-29T16:16:32.030Z,44.14
2023-04-29T16:18:58.371Z,44.84
2023-04-29T16:21:24.683Z,44.59
2023-04-29T16:23:51.023Z,44.61
2023-04-29T16:26:17.279Z,44.93
2023-04-29T16:28:43.539Z,45.92
2023-04-29T16:31:09.876Z,46.46
2023-04-29T16:33:36.208Z,46.78
2023-04-29T16:36:02.474Z,46.72
2023-04-29T16:38:28.782Z,47.59
2023-04-29T16:40:55.058Z,47.11
2023-04-29T16:43:21.308Z,47.48
2023-04-29T16:45:47.678Z,46.78
2023-04-29T16:48:13.983Z,45.44
2023-04-29T16:50:40.249Z,42.32
2023-04-29T16:53:06.518Z,40.29
2023-04-29T16:55:32.919Z,38.42
2023-04-29T16:57:59.212Z,39.26
2023-04-29T17:00:25.582Z,37.91
2023-04-29T17:02:51.919Z,37.96
2023-04-29T17:05:18.234Z,37.82
2023-04-29T17:07:44.507Z,39.06
2023-04-29T17:10:10.746Z,40.09
2023-04-29T17:12:37.007Z,40.18
2023-04-29T17:15:03.275Z,42.14
2023-04-29T17:17:29.636Z,43.17
2023-04-29T17:19:55.997Z,41.82
2023-04-29T17:22:22.532Z,42.88
2023-04-29T17:24:49.013Z,43.46
2023-04-29T17:27:15.297Z,43.65
2023-04-29T17:29:41.590Z,44.04
2023-04-29T17:32:07.951Z,44.75
2023-04-29T17:34:34.301Z,44.25
2023-04-29T17:37:00.600Z,45.53
2023-04-29T17:39:26.857Z,45.65
2023-04-29T17:41:53.176Z,45.17
2023-04-29T17:44:21.782Z,45.34
2023-04-29T17:46:49.469Z,45.68
2023-04-29T17:49:15.724Z,45.93
2023-04-29T17:51:42.010Z,46.51
2023-04-29T17:54:08.262Z,46.03
2023-04-29T17:56:34.502Z,46.04
2023-04-29T17:59:00.762Z,46.56
2023-04-29T18:01:27.100Z,46.12
2023-04-29T18:03:53.419Z,46.92
2023-04-29T18:06:19.815Z,46.75
2023-04-29T18:08:46.161Z,47.18
2023-04-29T18:11:12.404Z,47.69
2023-04-29T18:13:38.657Z,48.02
2023-04-29T18:16:04.963Z,47.90
2023-04-29T18:18:31.213Z,48.07
2023-04-29T18:20:57.544Z,48.35
2023-04-29T18:23:23.820Z,48.92
2023-04-29T18:25:50.073Z,49.97
2023-04-29T18:28:24.890Z,50.34
2023-04-29T18:30:51.761Z,51.34
2023-04-29T18:33:18.054Z,50.77
2023-04-29T18:35:44.337Z,51.56
2023-04-29T18:38:10.615Z,50.93
2023-04-29T18:40:36.889Z,50.84
2023-04-29T18:43:03.159Z,51.10
2023-04-29T18:45:29.507Z,51.18
2023-04-29T18:47:55.862Z,50.96
2023-04-29T18:50:22.176Z,52.23
2023-04-29T18:52:48.433Z,52.60
2023-04-29T18:55:14.692Z,52.48
2023-04-29T18:57:40.984Z,52.37
2023-04-29T19:00:07.239Z,52.42
2023-04-29T19:02:33.562Z,53.36
2023-04-29T19:04:59.882Z,53.94
2023-04-29T19:07:26.265Z,54.47
2023-04-29T19:09:52.951Z,54.42
2023-04-29T19:12:19.340Z,54.97
2023-04-29T19:14:45.599Z,54.84
2023-04-29T19:17:11.902Z,54.85
2023-04-29T19:19:38.221Z,55.48
2023-04-29T19:22:04.473Z,55.31
2023-04-29T19:24:30.784Z,55.52
2023-04-29T19:26:57.040Z,55.58
2023-04-29T19:29:23.282Z,55.83
2023-04-29T19:31:49.606Z,55.32
2023-04-29T19:34:15.923Z,55.81
2023-04-29T19:36:42.176Z,55.51
2023-04-29T19:39:08.476Z,55.42
2023-04-29T19:41:35.159Z,55.24
2023-04-29T19:44:01.611Z,55.29
2023-04-29T19:46:27.888Z,55.67
2023-04-29T19:48:54.170Z,55.69
2023-04-29T19:51:20.447Z,55.99
2023-04-29T19:53:46.754Z,55.28
2023-04-29T19:56:13.010Z,55.38
2023-04-29T19:58:39.299Z,55.06
2023-04-29T20:01:05.619Z,54.74
2023-04-29T20:03:32.055Z,54.44
2023-04-29T20:05:58.390Z,53.68
2023-04-29T20:08:24.678Z,53.51
2023-04-29T20:10:50.941Z,52.37
2023-04-29T20:13:17.220Z,53.06
2023-04-29T20:15:43.512Z,53.49
2023-04-29T20:18:09.775Z,54.53
2023-04-29T20:20:36.106Z,54.29
2023-04-29T20:23:02.401Z,54.56
2023-04-29T20:25:28.676Z,54.77
2023-04-29T20:27:54.988Z,54.09
2023-04-29T20:30:21.287Z,53.87
2023-04-29T20:32:47.595Z,54.61
2023-04-29T20:35:13.871Z,54.54
2023-04-29T20:37:40.119Z,54.75
2023-04-29T20:40:06.408Z,53.84
2023-04-29T20:42:32.666Z,53.93
2023-04-29T20:44:58.919Z,55.01
2023-04-29T20:47:25.219Z,54.10
2023-04-29T20:49:51.602Z,54.63
2023-04-29T20:52:17.990Z,54.65
2023-04-29T20:54:44.264Z,55.28
2023-04-29T20:57:10.555Z,55.33
2023-04-29T20:59:36.813Z,56.63
2023-04-29T21:02:03.071Z,55.63
2023-04-29T21:04:29.400Z,56.26
2023-04-29T21:06:55.714Z,56.19
2023-04-29T21:09:21.983Z,57.31
2023-04-29T21:11:48.252Z,57.18
2023-04-29T21:14:14.543Z,57.46
2023-04-29T21:16:40.811Z,57.26
2023-04-29T21:19:07.060Z,57.57
2023-04-29T21:21:33.350Z,57.38
2023-04-29T21:23:59.629Z,56.88
2023-04-29T21:26:25.893Z,56.72
2023-04-29T21:28:52.163Z,56.58
2023-04-29T21:31:18.521Z,56.17
2023-04-29T21:33:44.910Z,55.99
2023-04-29T21:36:11.165Z,55.84
2023-04-29T21:38:37.406Z,55.54
2023-04-29T21:41:03.706Z,55.45
2023-04-29T21:43:29.950Z,55.78
2023-04-29T21:45:56.194Z,55.19
2023-04-29T21:48:22.492Z,54.86
2023-04-29T21:50:48.764Z,55.56
2023-04-29T21:53:16.676Z,55.43
2023-04-29T21:55:43.138Z,55.76
2023-04-29T21:58:09.421Z,55.33
2023-04-29T22:00:35.730Z,55.01
2023-04-29T22:03:02.131Z,55.51
2023-04-29T22:05:28.477Z,54.96
2023-04-29T22:07:54.756Z,55.00
2023-04-29T22:10:21.057Z,54.75
2023-04-29T22:12:47.344Z,54.96
2023-04-29T22:15:26.817Z,54.08
2023-04-29T22:17:54.267Z,54.26
2023-04-29T22:20:20.709Z,53.86
2023-04-29T22:22:46.978Z,53.70
2023-04-29T22:25:13.267Z,53.30
2023-04-29T22:27:39.536Z,53.60
2023-04-29T22:30:05.805Z,53.53
2023-04-29T22:32:32.103Z,54.48
2023-04-29T22:35:00.517Z,54.57
2023-04-29T22:37:27.133Z,55.53
2023-04-29T22:39:53.581Z,55.45
2023-04-29T22:42:20.057Z,55.32
2023-04-29T22:44:46.335Z,55.91
2023-04-29T22:47:12.602Z,55.83
2023-04-29T22:49:38.869Z,56.32
2023-04-29T22:52:05.146Z,56.52
2023-04-29T22:54:31.540Z,56.61
2023-04-29T22:56:57.874Z,56.63
2023-04-29T22:59:24.168Z,56.38
2023-04-29T23:01:50.497Z,56.51
2023-04-29T23:04:16.855Z,56.01
2023-04-29T23:06:43.247Z,56.55
2023-04-29T23:09:09.677Z,57.18
2023-04-29T23:11:36.007Z,57.19
2023-04-29T23:14:05.318Z,56.92
2023-04-29T23:16:31.621Z,57.45
2023-04-29T23:18:57.906Z,57.35
2023-04-29T23:21:24.174Z,57.25
2023-04-29T23:23:50.428Z,58.14
2023-04-29T23:26:16.709Z,57.48
2023-04-29T23:28:42.973Z,57.82
2023-04-29T23:31:09.223Z,57.83
2023-04-29T23:33:35.488Z,58.08
2023-04-29T23:36:01.749Z,57.42
2023-04-29T23:38:27.999Z,58.03
2023-04-29T23:40:54.284Z,57.62
2023-04-29T23:43:20.550Z,57.83
2023-04-29T23:45:46.877Z,57.63
2023-04-29T23:48:13.202Z,57.87
2023-04-29T23:50:39.467Z,57.67
2023-04-29T23:53:05.726Z,57.26
2023-04-29T23:55:32.008Z,57.94
2023-04-29T23:57:58.289Z,58.53
